Terminal Aerodrome Forecast
Issued by NWS El Paso, TX

Home | Current Version | Previous Version | Text Only | Print | Product List | Glossary On
Versions: 1 2 3 4 5 6 7 8 9 10 11 12 13 14 15 16 17 18 19 20 21 22 23
000
FTUS44 KEPZ 202300
TAFELP
TAF
KELP 202338Z 2100/2124 13009KT P6SM VCTS SCT040CB BKN100
     FM210300 10008KT P6SM SCT030 BKN070
     FM211200 07009KT P6SM SCT050 BKN120
     FM211900 11008KT P6SM VCTS SCT040CB BKN100=

USA.gov is the U.S. government's official web portal to all federal, state and local government web resources and services.